Grand Forks, ND (58201)

09:56 CDT le 30 août 2016 (GMT -0500)
APRSWXNET | | Change Station

Alt. 846 ft 47.89 °N, 97.16 °W | Updated 22 minutes ago

Clear
Ciel dégagé
62 ° F
Paraît 62 ° F
N
0
Vent Variable Vent de Ouest
Gusts 2.0 mph

Aujourd'hui
Haut(e) -- | Bas -- ° F
--% Risque de précip.
Hier
Haut(e) -- | Bas -- ° F
Precip. -- pouce
Pression 30.25 pouce
Visibilité 10.0 Miles terrestres
Nuages Ciel dégagé
Point de rosée 55 ° F
Humidité 77%
Précipitations pouce
Profondeur de la couche neigeuse Non disponible.
6:44 AM 8:11 PM
Lune descendante, 3% visible
METAR KGFK 301453Z 29004KT 10SM CLR 18/11 A3025 RMK AO2 SLP244 T01830106 50001
Pression 30.25 pouce
Visibilité 10.0 Miles terrestres
Nuages Ciel dégagé
Point de rosée 55 ° F
Humidité 77%
Précipitations pouce
Profondeur de la couche neigeuse Non disponible.
6:44 AM 8:11 PM
Lune descendante, 3% visible
METAR KGFK 301453Z 29004KT 10SM CLR 18/11 A3025 RMK AO2 SLP244 T01830106 50001

10-Day Weather Forecast

Almanac

Astronomie

Aug. 30, 2016 Lever Coucher
Temps réel
Crépuscule civil
Crépuscule nautique
Crépuscule astronomique
Lune
Durée de lumière visible
Longueur du jour
Tomorrow will be .
, % of the Moon is Illuminated

Extrêmes aujourd'hui

State Highs State Lows

Community

WunderPhotos

Upload Photos

1,935,849 Photos téléchargées !

WunderBlog® & News

Nearby

Qualité de l'air

  Qualité de l'air Indice de la qualité de l'air Polluant
Not available.

Épaisseur de neige

Station Depth Altitude

Activité sismique

Ville Distance Mag. Time & Date
Minimum magnitude displayed is 2.5.

Températures des eaux côtières

Lieu Température

Stations

Stations météo à proximité

Emplacement de la station Température Refroidissement éolien Point de rosée Humidité Vent Precip. Alt. Mise à jour Type
                   

Watches & Warnings

There are currently no watches in effect.